Time;durP1;ratioP1;P1;durP2;ratioP2;P2;SDS_P1;SDS_P2;PMS_P1;PMS_P2;Temp;Humidity;BMP_temperature;BMP_pressure;BME280_temperature;BME280_humidity;BME280_pressure;Samples;Min_cycle;Max_cycle;Signal;HPM_P1;HPM_P2
2021/08/10 00:02:06;;;;;;;9.13;5.15;;;15.20;99.90;;;;;;5088536;28;20032;-58
2021/08/10 00:04:32;;;;;;;8.20;4.28;;;15.10;99.90;;;;;;5086658;28;20020;-57
2021/08/10 00:06:57;;;;;;;9.80;4.03;;;15.10;99.90;;;;;;5089914;28;20067;-58
2021/08/10 00:09:23;;;;;;;12.40;3.85;;;15.10;99.90;;;;;;5087721;28;20426;-57
2021/08/10 00:11:48;;;;;;;7.82;3.50;;;15.10;99.90;;;;;;5084626;28;20060;-59
2021/08/10 00:14:14;;;;;;;8.20;3.65;;;15.00;99.90;;;;;;5085789;28;20024;-58
2021/08/10 00:16:39;;;;;;;8.38;3.63;;;15.00;99.90;;;;;;5089144;28;20024;-58
2021/08/10 00:19:06;;;;;;;7.75;3.40;;;15.00;99.90;;;;;;5082223;28;20499;-55
2021/08/10 00:21:31;;;;;;;5.55;2.72;;;15.00;99.90;;;;;;5086749;28;20038;-58
2021/08/10 00:23:57;;;;;;;9.32;2.83;;;15.10;99.90;;;;;;5088783;28;20107;-60
2021/08/10 00:26:22;;;;;;;8.25;3.42;;;15.00;99.90;;;;;;5085791;28;20044;-57
2021/08/10 00:28:48;;;;;;;7.97;3.72;;;14.90;99.90;;;;;;5082131;28;20036;-55
2021/08/10 00:31:13;;;;;;;15.20;3.70;;;14.80;99.90;;;;;;5081752;28;20563;-56
2021/08/10 00:33:40;;;;;;;7.88;3.70;;;14.80;99.90;;;;;;5080857;28;20027;-60
2021/08/10 00:36:05;;;;;;;11.95;4.28;;;14.80;99.90;;;;;;5079627;28;20077;-57
2021/08/10 00:38:31;;;;;;;9.77;3.75;;;14.70;99.90;;;;;;5085099;28;20024;-54
2021/08/10 00:40:57;;;;;;;7.50;4.28;;;14.70;99.90;;;;;;5085781;28;20552;-54
2021/08/10 00:43:49;;;;;;;9.52;4.28;;;14.60;99.90;;;;;;5081993;28;20020;-53
2021/08/10 00:46:15;;;;;;;11.18;4.07;;;14.60;99.90;;;;;;5073946;28;20040;-55
2021/08/10 00:48:42;;;;;;;13.20;4.82;;;14.60;99.90;;;;;;5084155;28;20029;-57
2021/08/10 00:51:10;;;;;;;8.98;4.32;;;14.60;99.90;;;;;;5087097;28;20024;-57
2021/08/10 00:53:36;;;;;;;9.35;4.32;;;14.50;99.90;;;;;;5079796;28;20119;-57
2021/08/10 00:56:06;;;;;;;10.25;4.10;;;14.50;99.90;;;;;;5077104;28;20032;-55
2021/08/10 00:58:32;;;;;;;15.30;4.43;;;14.40;99.90;;;;;;5088574;28;20027;-58
2021/08/10 01:00:58;;;;;;;11.68;4.43;;;14.40;99.90;;;;;;5079709;28;20538;-58
2021/08/10 01:03:24;;;;;;;12.68;4.30;;;14.40;99.90;;;;;;5086044;28;20033;-57
2021/08/10 01:05:50;;;;;;;7.78;4.28;;;14.40;99.90;;;;;;5089760;28;20035;-59
2021/08/10 01:08:22;;;;;;;11.18;4.80;;;14.30;99.90;;;;;;5082106;28;20051;-56
2021/08/10 01:10:56;;;;;;;6.95;4.70;;;14.20;99.90;;;;;;5085009;28;20066;-58
2021/08/10 01:13:44;;;;;;;9.23;4.10;;;14.20;99.90;;;;;;5082248;28;20035;-60
2021/08/10 01:16:42;;;;;;;8.88;4.80;;;14.20;99.90;;;;;;5087306;28;20035;-54
2021/08/10 01:19:35;;;;;;;10.57;4.70;;;14.20;99.90;;;;;;5082701;28;20020;-57
2021/08/10 01:22:03;;;;;;;9.90;4.57;;;14.30;99.90;;;;;;5087609;28;20046;-55
2021/08/10 01:24:34;;;;;;;9.35;4.00;;;14.20;99.90;;;;;;5086365;28;20028;-58
2021/08/10 01:27:03;;;;;;;7.82;4.60;;;14.20;99.90;;;;;;5086517;28;20517;-58
2021/08/10 01:29:38;;;;;;;10.80;4.65;;;14.20;99.90;;;;;;5084270;28;20035;-56
2021/08/10 01:32:04;;;;;;;9.40;4.30;;;14.20;99.90;;;;;;5083981;28;20031;-58
2021/08/10 01:34:40;;;;;;;9.27;4.40;;;14.20;99.90;;;;;;5081922;28;20028;-59
2021/08/10 01:37:11;;;;;;;16.65;4.93;;;14.20;99.90;;;;;;5082552;28;20024;-56
2021/08/10 01:39:39;;;;;;;12.27;4.60;;;14.10;99.90;;;;;;5086041;28;20442;-58
2021/08/10 01:42:06;;;;;;;11.18;4.55;;;14.10;99.90;;;;;;5080234;28;20047;-60
2021/08/10 01:44:34;;;;;;;6.28;4.30;;;14.10;99.90;;;;;;5085833;28;20127;-56
2021/08/10 01:47:02;;;;;;;10.68;4.68;;;14.10;99.90;;;;;;5088078;28;20573;-54
2021/08/10 01:49:28;;;;;;;8.32;5.10;;;14.10;99.90;;;;;;5086167;28;20039;-56
2021/08/10 01:51:57;;;;;;;10.60;4.50;;;14.10;99.90;;;;;;5078611;28;20089;-57
2021/08/10 01:54:25;;;;;;;9.55;4.50;;;14.10;99.90;;;;;;5085759;28;20024;-54
2021/08/10 01:56:51;;;;;;;14.38;4.72;;;14.00;99.90;;;;;;5083274;28;20052;-55
2021/08/10 01:59:18;;;;;;;7.07;4.80;;;14.00;99.90;;;;;;5087883;28;20443;-54
2021/08/10 02:01:44;;;;;;;9.50;4.55;;;13.90;99.90;;;;;;5090195;28;20055;-60
2021/08/10 02:04:11;;;;;;;6.28;4.10;;;13.90;99.90;;;;;;5089618;28;20032;-55
2021/08/10 02:06:38;;;;;;;8.90;4.03;;;13.90;99.90;;;;;;5081557;28;20111;-53
2021/08/10 02:09:05;;;;;;;8.73;3.92;;;13.80;99.90;;;;;;5085657;28;20410;-56
2021/08/10 02:11:32;;;;;;;5.80;3.40;;;13.80;99.90;;;;;;5077936;28;20089;-53
2021/08/10 02:13:59;;;;;;;7.03;3.33;;;13.90;99.90;;;;;;5083564;28;20062;-57
2021/08/10 02:16:26;;;;;;;6.15;3.30;;;13.90;99.90;;;;;;5087230;28;20139;-54
2021/08/10 02:18:52;;;;;;;8.25;3.30;;;13.90;99.90;;;;;;5085978;28;20024;-54
2021/08/10 02:21:25;;;;;;;12.25;3.83;;;14.00;99.90;;;;;;5079150;28;20024;-54
2021/08/10 02:24:07;;;;;;;10.60;3.92;;;13.90;99.90;;;;;;5090112;28;20020;-56
2021/08/10 02:26:44;;;;;;;8.77;3.60;;;14.00;99.90;;;;;;5086159;28;20560;-54
2021/08/10 02:29:11;;;;;;;11.70;4.25;;;14.00;99.90;;;;;;5080306;28;20036;-55
2021/08/10 02:31:38;;;;;;;6.13;3.80;;;14.00;99.90;;;;;;5087692;28;20103;-55
2021/08/10 02:34:04;;;;;;;9.40;3.85;;;14.00;99.90;;;;;;5086811;28;20027;-55
2021/08/10 02:36:31;;;;;;;11.75;4.30;;;14.10;99.90;;;;;;5084145;28;20032;-58
2021/08/10 02:39:05;;;;;;;7.38;4.30;;;14.10;99.90;;;;;;5089452;28;20036;-56
2021/08/10 02:41:32;;;;;;;6.47;3.65;;;14.10;99.90;;;;;;5088990;28;20047;-57
2021/08/10 02:43:57;;;;;;;11.32;4.38;;;14.20;99.90;;;;;;5085343;28;20032;-56
2021/08/10 02:46:23;;;;;;;10.63;4.20;;;14.20;99.90;;;;;;5087416;28;20111;-58
2021/08/10 02:48:48;;;;;;;6.55;3.30;;;14.30;99.90;;;;;;5088004;28;20147;-57
2021/08/10 02:51:14;;;;;;;4.45;3.08;;;14.40;99.90;;;;;;5087782;28;20028;-59
2021/08/10 02:53:40;;;;;;;9.82;4.13;;;14.30;99.90;;;;;;5080287;28;20021;-57
2021/08/10 02:56:15;;;;;;;13.32;4.63;;;14.30;99.90;;;;;;5083269;28;20095;-56
2021/08/10 02:59:03;;;;;;;12.98;6.10;;;14.40;99.90;;;;;;5085363;28;20028;-57
2021/08/10 03:01:42;;;;;;;11.85;4.78;;;14.30;99.90;;;;;;5081463;28;20020;-59
2021/08/10 03:04:09;;;;;;;10.73;5.00;;;14.40;99.90;;;;;;5081775;28;20056;-59
2021/08/10 03:06:34;;;;;;;9.40;3.83;;;14.40;99.90;;;;;;5090294;28;20020;-57
2021/08/10 03:09:01;;;;;;;9.38;4.43;;;14.40;99.90;;;;;;5080575;28;20024;-57
2021/08/10 03:11:32;;;;;;;16.02;4.53;;;14.40;99.90;;;;;;5089259;28;20148;-58
2021/08/10 03:13:59;;;;;;;10.15;4.30;;;14.40;99.90;;;;;;5083309;28;20029;-58
2021/08/10 03:16:28;;;;;;;8.75;4.80;;;14.40;99.90;;;;;;5084097;28;20020;-56
2021/08/10 03:18:56;;;;;;;5.65;4.00;;;14.50;99.90;;;;;;5089381;28;20120;-57
2021/08/10 03:21:23;;;;;;;11.60;4.45;;;14.50;99.90;;;;;;5086633;28;20027;-59
2021/08/10 03:23:51;;;;;;;12.35;4.45;;;14.50;99.90;;;;;;5086834;28;20403;-60
2021/08/10 03:26:20;;;;;;;13.63;5.03;;;14.50;99.90;;;;;;5079129;28;20021;-59
2021/08/10 03:28:49;;;;;;;15.93;5.05;;;14.50;99.90;;;;;;5086930;28;20031;-56
2021/08/10 03:31:15;;;;;;;6.75;3.88;;;14.90;99.90;;;;;;5080582;28;20032;-59
2021/08/10 03:33:41;;;;;;;9.57;3.95;;;15.00;99.90;;;;;;5086613;28;20022;-59
2021/08/10 03:36:07;;;;;;;9.30;3.70;;;15.10;99.90;;;;;;5080898;28;20050;-57
2021/08/10 03:38:34;;;;;;;8.23;4.15;;;15.20;99.90;;;;;;5086951;28;20020;-56
2021/08/10 03:41:02;;;;;;;12.48;5.10;;;15.20;99.90;;;;;;5083645;28;20020;-58
2021/08/10 03:43:28;;;;;;;12.35;4.47;;;15.20;99.90;;;;;;5084715;28;20020;-59
2021/08/10 03:45:54;;;;;;;12.18;4.82;;;15.20;99.90;;;;;;5075756;28;20059;-59
2021/08/10 03:48:21;;;;;;;13.00;4.97;;;15.30;99.90;;;;;;5081455;28;20066;-59
2021/08/10 03:50:52;;;;;;;13.02;5.15;;;15.20;99.90;;;;;;5089473;28;20036;-58
2021/08/10 03:53:21;;;;;;;13.63;4.95;;;15.20;99.90;;;;;;5089047;28;20376;-57
2021/08/10 03:55:50;;;;;;;8.57;4.43;;;15.20;99.90;;;;;;5083863;28;20020;-57
2021/08/10 03:58:20;;;;;;;13.63;4.68;;;15.20;99.90;;;;;;5084637;28;20119;-54
2021/08/10 04:00:46;;;;;;;10.55;4.15;;;15.20;99.90;;;;;;5085786;28;20498;-57
2021/08/10 04:03:12;;;;;;;11.52;4.80;;;15.20;99.90;;;;;;5083261;28;20121;-58
2021/08/10 04:05:43;;;;;;;8.00;4.45;;;15.20;99.90;;;;;;5080649;28;20042;-58
2021/08/10 04:08:11;;;;;;;9.43;4.28;;;15.20;99.90;;;;;;5087087;28;20043;-59
2021/08/10 04:10:39;;;;;;;12.45;5.70;;;15.10;99.90;;;;;;5081682;28;20115;-58
2021/08/10 04:13:06;;;;;;;11.10;5.10;;;15.00;99.90;;;;;;5086919;28;20040;-57
2021/08/10 04:15:32;;;;;;;16.67;5.78;;;15.00;99.90;;;;;;5081798;28;20484;-57
2021/08/10 04:17:58;;;;;;;16.35;6.20;;;15.00;99.90;;;;;;5087522;28;20039;-59
2021/08/10 04:20:24;;;;;;;20.55;6.28;;;14.90;99.90;;;;;;5084714;28;20391;-56
2021/08/10 04:22:50;;;;;;;16.30;5.30;;;15.00;99.90;;;;;;5081267;28;20523;-59
2021/08/10 04:25:16;;;;;;;14.40;6.53;;;14.90;99.90;;;;;;5083505;28;20395;-60
2021/08/10 04:27:41;;;;;;;18.40;6.75;;;14.90;99.90;;;;;;5083025;28;20025;-57
2021/08/10 04:30:07;;;;;;;15.55;6.30;;;14.90;99.90;;;;;;5088307;28;20038;-60
2021/08/10 04:32:33;;;;;;;13.40;6.72;;;14.90;99.90;;;;;;5082304;28;20032;-57
2021/08/10 04:35:00;;;;;;;17.75;6.82;;;14.90;99.90;;;;;;5089383;28;20036;-57
2021/08/10 04:37:26;;;;;;;18.95;7.55;;;14.90;99.90;;;;;;5091590;28;20031;-55
2021/08/10 04:39:51;;;;;;;16.58;6.38;;;14.90;99.90;;;;;;5091207;28;20024;-56
2021/08/10 04:42:17;;;;;;;18.60;6.82;;;14.90;99.90;;;;;;5084942;28;20462;-59
2021/08/10 04:44:42;;;;;;;21.83;7.65;;;14.90;99.90;;;;;;5091970;28;20534;-60
2021/08/10 04:47:08;;;;;;;18.92;7.05;;;14.90;99.90;;;;;;5082017;28;20039;-57
2021/08/10 04:49:33;;;;;;;21.45;6.90;;;14.90;99.90;;;;;;5090007;28;20054;-55
2021/08/10 04:51:59;;;;;;;17.90;7.00;;;14.80;99.90;;;;;;5084950;28;20028;-58
2021/08/10 04:54:25;;;;;;;13.82;6.90;;;14.80;99.90;;;;;;5092786;28;20028;-58
2021/08/10 04:56:50;;;;;;;28.33;7.70;;;14.80;99.90;;;;;;5090201;28;20028;-57
2021/08/10 04:59:16;;;;;;;20.98;7.47;;;14.70;99.90;;;;;;5084131;28;20051;-56
2021/08/10 05:01:44;;;;;;;18.13;6.90;;;14.70;99.90;;;;;;5092335;28;20481;-57
2021/08/10 05:04:09;;;;;;;16.80;7.10;;;14.80;99.90;;;;;;5090782;28;20032;-56
2021/08/10 05:06:39;;;;;;;18.92;7.57;;;14.80;99.90;;;;;;5085317;28;20040;-57
2021/08/10 05:09:08;;;;;;;31.55;8.20;;;14.70;99.90;;;;;;5088286;28;20110;-57
2021/08/10 05:11:34;;;;;;;18.15;8.63;;;14.80;99.90;;;;;;5088960;28;20063;-58
2021/08/10 05:14:00;;;;;;;17.67;7.63;;;14.70;99.90;;;;;;5089357;28;20060;-59
2021/08/10 05:16:26;;;;;;;20.98;8.25;;;14.80;99.90;;;;;;5082486;28;20044;-56
2021/08/10 05:18:51;;;;;;;13.27;7.40;;;14.80;99.90;;;;;;5092174;28;20093;-59
2021/08/10 05:21:19;;;;;;;13.20;7.57;;;14.80;99.90;;;;;;5085317;28;20033;-54
2021/08/10 05:23:44;;;;;;;17.98;7.53;;;14.80;99.90;;;;;;5084732;28;20043;-57
2021/08/10 05:26:10;;;;;;;22.50;9.25;;;14.80;99.90;;;;;;5086038;28;20466;-55
2021/08/10 05:28:35;;;;;;;20.17;8.77;;;14.90;99.90;;;;;;5086701;28;20434;-60
2021/08/10 05:31:01;;;;;;;22.45;9.45;;;14.90;99.90;;;;;;5085579;28;20040;-58
2021/08/10 05:33:26;;;;;;;19.77;9.02;;;15.00;99.90;;;;;;5088327;28;20032;-57
2021/08/10 05:35:52;;;;;;;17.10;8.93;;;15.10;99.90;;;;;;5080364;28;20031;-59
2021/08/10 05:38:17;;;;;;;20.02;8.73;;;15.20;99.90;;;;;;5089583;28;20024;-55
2021/08/10 05:40:43;;;;;;;21.17;9.27;;;15.20;99.90;;;;;;5084613;28;20032;-57
2021/08/10 05:43:08;;;;;;;19.50;8.75;;;15.30;99.90;;;;;;5088836;28;20054;-59
2021/08/10 05:45:34;;;;;;;24.98;10.55;;;15.30;99.90;;;;;;5085980;28;20032;-59
2021/08/10 05:47:59;;;;;;;21.45;10.73;;;15.30;99.90;;;;;;5080603;28;20499;-60
2021/08/10 05:50:25;;;;;;;29.42;10.93;;;15.40;99.90;;;;;;5091079;28;20028;-56
2021/08/10 05:52:52;;;;;;;28.30;12.05;;;15.40;99.90;;;;;;5086013;28;20035;-58
2021/08/10 05:55:17;;;;;;;20.25;10.88;;;15.50;99.90;;;;;;5081534;28;20059;-57
2021/08/10 05:57:43;;;;;;;27.42;12.25;;;15.50;99.90;;;;;;5087627;28;20829;-59
2021/08/10 06:00:09;;;;;;;25.77;11.68;;;15.60;99.90;;;;;;5082141;28;20442;-56
2021/08/10 06:02:35;;;;;;;23.67;11.27;;;15.60;99.90;;;;;;5084856;28;20023;-59
2021/08/10 06:05:00;;;;;;;26.05;10.25;;;15.60;99.90;;;;;;5078719;28;20509;-60
2021/08/10 06:07:26;;;;;;;21.33;11.35;;;15.70;99.90;;;;;;5085260;28;20036;-58
2021/08/10 06:09:51;;;;;;;18.77;9.95;;;15.70;99.90;;;;;;5080451;28;20025;-60
2021/08/10 06:12:17;;;;;;;20.10;9.43;;;15.70;99.90;;;;;;5085807;28;20036;-58
2021/08/10 06:14:43;;;;;;;20.48;9.57;;;15.80;99.90;;;;;;5083682;28;20039;-59
2021/08/10 06:17:08;;;;;;;26.30;10.00;;;15.80;99.90;;;;;;5090614;28;20024;-59
2021/08/10 06:19:34;;;;;;;19.42;9.30;;;15.80;99.90;;;;;;5084647;28;20032;-59
2021/08/10 06:21:59;;;;;;;18.00;8.50;;;15.90;99.90;;;;;;5084562;28;20021;-56
2021/08/10 06:24:27;;;;;;;21.60;8.27;;;15.90;99.90;;;;;;5086185;28;20032;-57
2021/08/10 06:26:53;;;;;;;27.55;8.43;;;16.00;99.90;;;;;;5087005;28;20070;-60
2021/08/10 06:29:18;;;;;;;16.20;8.25;;;16.00;99.90;;;;;;5086218;28;20070;-60
2021/08/10 06:31:44;;;;;;;13.63;8.15;;;16.10;99.90;;;;;;5083677;28;20058;-56
2021/08/10 06:34:10;;;;;;;18.05;8.52;;;16.30;99.90;;;;;;5086212;28;20089;-55
2021/08/10 06:36:36;;;;;;;17.52;8.45;;;16.40;99.90;;;;;;5084808;28;20403;-63
2021/08/10 06:39:02;;;;;;;15.25;8.80;;;16.40;99.90;;;;;;5085119;28;20020;-63
2021/08/10 06:41:27;;;;;;;17.92;9.10;;;16.50;99.90;;;;;;5078977;28;20090;-63
2021/08/10 06:43:53;;;;;;;19.60;9.10;;;16.60;99.90;;;;;;5082303;28;20028;-63
2021/08/10 06:46:18;;;;;;;14.43;7.22;;;16.60;99.90;;;;;;5080213;28;20491;-63
2021/08/10 06:48:44;;;;;;;19.38;7.05;;;16.60;99.90;;;;;;5079706;28;20040;-63
2021/08/10 06:51:09;;;;;;;16.75;8.25;;;16.60;99.90;;;;;;5081220;28;20085;-63
2021/08/10 06:53:35;;;;;;;15.25;7.00;;;16.60;99.90;;;;;;5080514;28;20020;-63
2021/08/10 06:56:00;;;;;;;18.65;8.48;;;16.60;99.90;;;;;;5078017;28;20046;-63
2021/08/10 06:58:26;;;;;;;29.70;9.57;;;16.60;99.90;;;;;;5081643;28;20544;-62
2021/08/10 07:00:51;;;;;;;38.05;10.05;;;16.60;99.90;;;;;;5080837;28;20020;-63
2021/08/10 07:03:17;;;;;;;18.25;9.07;;;16.50;99.90;;;;;;5082973;28;20024;-63
2021/08/10 07:05:43;;;;;;;13.55;7.45;;;16.60;99.90;;;;;;5079013;28;20033;-63
2021/08/10 07:08:08;;;;;;;18.88;8.48;;;16.60;99.90;;;;;;5081039;28;20080;-63
2021/08/10 07:10:34;;;;;;;22.50;9.45;;;16.60;99.90;;;;;;5080185;28;20024;-63
2021/08/10 07:13:00;;;;;;;13.77;8.73;;;16.70;99.90;;;;;;5078028;28;20028;-63
2021/08/10 07:15:25;;;;;;;22.02;9.32;;;16.70;99.90;;;;;;5079003;28;20518;-63
2021/08/10 07:17:51;;;;;;;13.20;7.15;;;16.80;99.90;;;;;;5080900;28;20576;-63
2021/08/10 07:20:16;;;;;;;13.35;7.10;;;16.80;99.90;;;;;;5084141;28;20016;-63
2021/08/10 07:22:42;;;;;;;19.50;8.60;;;16.90;99.90;;;;;;5079669;28;20024;-62
2021/08/10 07:25:08;;;;;;;16.92;7.43;;;16.90;99.90;;;;;;5079329;28;20569;-63
2021/08/10 07:27:34;;;;;;;14.98;5.85;;;17.00;99.90;;;;;;5078550;28;20048;-63
2021/08/10 07:30:00;;;;;;;14.82;6.68;;;17.10;99.90;;;;;;5081292;28;20388;-63
2021/08/10 07:32:26;;;;;;;19.85;8.57;;;17.20;99.90;;;;;;5076345;28;20024;-62
2021/08/10 07:34:51;;;;;;;13.98;7.88;;;17.20;99.90;;;;;;5079644;28;20032;-63
2021/08/10 07:37:17;;;;;;;17.08;6.47;;;17.30;99.90;;;;;;5077059;28;20066;-63
2021/08/10 07:39:43;;;;;;;12.88;6.28;;;17.30;99.90;;;;;;5076233;28;20023;-61
2021/08/10 07:42:08;;;;;;;13.80;6.55;;;17.30;99.90;;;;;;5079045;28;20083;-62
2021/08/10 07:44:34;;;;;;;11.45;6.30;;;17.40;99.90;;;;;;5079889;28;20552;-62
2021/08/10 07:46:59;;;;;;;14.40;6.20;;;17.40;99.90;;;;;;5077458;28;20047;-62
2021/08/10 07:49:25;;;;;;;9.88;6.00;;;17.50;99.90;;;;;;5078907;28;20548;-61
2021/08/10 07:51:51;;;;;;;12.52;5.93;;;17.70;99.90;;;;;;5076550;28;20067;-61
2021/08/10 07:54:16;;;;;;;11.48;6.30;;;17.90;99.90;;;;;;5078177;28;20048;-61
2021/08/10 07:56:42;;;;;;;13.38;5.93;;;18.10;99.90;;;;;;5078985;28;20172;-61
2021/08/10 07:59:07;;;;;;;15.07;6.47;;;18.30;99.90;;;;;;5077491;28;20074;-61
2021/08/10 08:01:33;;;;;;;12.40;6.18;;;18.40;99.90;;;;;;5079719;28;20121;-62
2021/08/10 08:03:58;;;;;;;10.82;5.88;;;18.30;99.90;;;;;;5078603;28;20032;-62
2021/08/10 08:06:24;;;;;;;12.43;4.85;;;18.40;99.90;;;;;;5077237;28;20024;-62
2021/08/10 08:08:49;;;;;;;11.80;5.85;;;18.50;99.90;;;;;;5077301;28;20040;-62
2021/08/10 08:11:15;;;;;;;15.50;5.65;;;18.60;99.90;;;;;;5078231;28;20024;-65
2021/08/10 08:13:40;;;;;;;12.70;5.80;;;18.60;99.90;;;;;;5075885;28;20032;-62
2021/08/10 08:16:06;;;;;;;9.18;5.38;;;18.60;99.90;;;;;;5076711;28;20508;-62
2021/08/10 08:18:31;;;;;;;12.70;5.25;;;18.70;99.90;;;;;;5083135;28;20077;-61
2021/08/10 08:20:57;;;;;;;9.60;4.88;;;18.70;99.90;;;;;;5084718;28;20081;-61
2021/08/10 08:23:27;;;;;;;11.80;5.55;;;18.80;99.90;;;;;;5087418;28;20028;-61
2021/08/10 08:25:53;;;;;;;15.32;4.97;;;18.80;99.90;;;;;;5085030;28;20068;-62
2021/08/10 08:28:19;;;;;;;15.73;5.32;;;19.00;99.90;;;;;;5080065;28;20059;-63
2021/08/10 08:30:44;;;;;;;7.72;3.95;;;19.10;99.90;;;;;;5084711;28;20028;-63
2021/08/10 08:33:11;;;;;;;13.55;4.97;;;19.30;99.90;;;;;;5090250;28;20402;-62
2021/08/10 08:35:38;;;;;;;12.57;5.10;;;19.50;99.90;;;;;;5081013;28;20485;-64
2021/08/10 08:38:05;;;;;;;11.18;5.50;;;19.60;99.90;;;;;;5089714;28;20035;-63
2021/08/10 08:40:31;;;;;;;8.05;4.38;;;19.70;99.90;;;;;;5082559;28;20065;-64
2021/08/10 08:43:06;;;;;;;8.40;4.18;;;19.80;99.90;;;;;;5059963;28;20020;-63
2021/08/10 08:45:36;;;;;;;9.10;3.55;;;19.80;99.90;;;;;;5070631;28;20028;-62
2021/08/10 08:48:02;;;;;;;8.38;4.32;;;19.90;99.90;;;;;;5084507;28;20024;-63
2021/08/10 08:50:30;;;;;;;7.28;3.95;;;19.90;99.90;;;;;;5094003;28;20087;-63
2021/08/10 08:52:58;;;;;;;8.35;4.18;;;19.80;99.90;;;;;;5086432;28;20039;-64
2021/08/10 08:55:25;;;;;;;12.75;4.82;;;19.80;99.90;;;;;;5081173;28;20031;-64
2021/08/10 08:57:50;;;;;;;11.57;4.28;;;19.70;99.90;;;;;;5087399;28;20064;-59
2021/08/10 09:00:18;;;;;;;8.68;4.50;;;19.80;99.90;;;;;;5085774;28;20066;-58
2021/08/10 09:02:44;;;;;;;13.00;4.07;;;19.80;99.90;;;;;;5080726;28;20078;-59
2021/08/10 09:05:16;;;;;;;9.05;4.05;;;19.60;99.90;;;;;;5081525;28;20111;-60
2021/08/10 09:07:42;;;;;;;11.02;4.05;;;19.50;99.90;;;;;;5084504;28;20028;-58
2021/08/10 09:10:08;;;;;;;7.30;4.35;;;19.50;99.90;;;;;;5084816;28;20476;-59
2021/08/10 09:12:53;;;;;;;13.77;4.30;;;19.60;99.90;;;;;;5087464;28;20043;-58
2021/08/10 09:15:39;;;;;;;11.73;4.38;;;19.40;99.90;;;;;;5094521;28;20020;-58
2021/08/10 09:18:16;;;;;;;11.13;4.18;;;19.40;99.90;;;;;;5071910;28;20027;-58
2021/08/10 09:21:06;;;;;;;9.18;4.43;;;19.20;99.90;;;;;;5091112;28;20376;-60
2021/08/10 09:23:45;;;;;;;12.15;4.90;;;19.10;99.90;;;;;;5079933;28;20047;-59
2021/08/10 09:26:17;;;;;;;12.60;4.43;;;19.10;99.90;;;;;;5098430;28;20054;-58
2021/08/10 09:28:43;;;;;;;8.93;4.05;;;19.10;99.90;;;;;;5083596;28;20031;-55
2021/08/10 09:31:28;;;;;;;11.85;4.15;;;19.10;99.90;;;;;;5084056;28;20081;-57
2021/08/10 09:33:55;;;;;;;;;;;19.00;99.90;;;;;;5079887;28;20371;-59
2021/08/10 09:36:25;;;;;;;8.60;4.25;;;18.80;99.90;;;;;;5082187;28;19916;-58
2021/08/10 09:38:51;;;;;;;8.90;4.85;;;18.50;99.90;;;;;;5087852;28;20024;-58
2021/08/10 09:41:16;;;;;;;19.33;5.25;;;18.50;99.90;;;;;;5084616;28;20139;-58
2021/08/10 09:43:43;;;;;;;14.65;5.32;;;18.50;99.90;;;;;;5086750;28;20024;-56
2021/08/10 09:46:22;;;;;;;12.27;5.55;;;18.50;99.90;;;;;;5086074;28;20039;-57
2021/08/10 09:48:56;;;;;;;16.70;5.25;;;18.40;99.90;;;;;;5084917;28;20093;-59
2021/08/10 09:51:25;;;;;;;9.07;5.47;;;18.40;99.90;;;;;;5083266;28;20020;-59
2021/08/10 09:53:56;;;;;;;11.77;5.65;;;18.40;99.90;;;;;;5082566;28;20074;-60
2021/08/10 09:56:39;;;;;;;12.88;5.40;;;18.40;99.90;;;;;;5085291;28;20031;-59
2021/08/10 09:59:05;;;;;;;17.33;5.43;;;18.50;99.90;;;;;;5077488;28;20395;-58
2021/08/10 10:01:35;;;;;;;9.55;5.15;;;18.50;99.90;;;;;;5084319;28;20020;-59
2021/08/10 10:04:11;;;;;;;12.43;4.97;;;18.60;99.90;;;;;;5080661;28;20089;-58
2021/08/10 10:06:37;;;;;;;12.20;5.45;;;18.90;99.90;;;;;;5087763;28;20036;-59
2021/08/10 10:09:04;;;;;;;9.90;4.22;;;19.20;99.90;;;;;;5084243;28;20028;-58
2021/08/10 10:11:33;;;;;;;12.98;5.63;;;19.40;99.90;;;;;;5083306;28;20471;-58
2021/08/10 10:14:02;;;;;;;13.07;5.20;;;19.50;99.90;;;;;;5084693;28;20055;-60
2021/08/10 10:16:28;;;;;;;17.25;6.35;;;19.60;99.90;;;;;;5085830;28;20231;-59
2021/08/10 10:18:55;;;;;;;13.32;6.40;;;19.50;99.90;;;;;;5082139;28;20170;-59
2021/08/10 10:21:24;;;;;;;13.20;5.47;;;19.40;99.90;;;;;;5085956;28;20422;-58
2021/08/10 10:23:53;;;;;;;8.48;4.25;;;19.70;99.90;;;;;;5074931;28;20516;-61
2021/08/10 10:26:21;;;;;;;9.55;3.88;;;19.80;99.90;;;;;;5081831;28;20042;-61
2021/08/10 10:28:47;;;;;;;11.18;4.45;;;19.80;99.90;;;;;;5084667;28;20028;-59
2021/08/10 10:31:13;;;;;;;11.75;3.92;;;19.80;99.90;;;;;;5082446;28;20035;-60
2021/08/10 10:33:40;;;;;;;12.05;4.30;;;20.20;99.90;;;;;;5080225;28;20032;-56
2021/08/10 10:36:06;;;;;;;6.28;3.38;;;20.40;99.90;;;;;;5081797;28;20032;-58
2021/08/10 10:38:32;;;;;;;8.55;3.50;;;20.30;99.90;;;;;;5085709;28;20082;-58
2021/08/10 10:40:59;;;;;;;8.30;4.35;;;20.80;99.90;;;;;;5082886;28;20043;-57
2021/08/10 10:43:27;;;;;;;7.88;3.70;;;21.50;99.90;;;;;;5080828;28;20425;-57
2021/08/10 10:45:54;;;;;;;9.45;3.63;;;21.50;99.90;;;;;;5082084;28;20031;-60
2021/08/10 10:48:25;;;;;;;6.32;3.85;;;21.90;99.90;;;;;;5078601;28;20020;-60
2021/08/10 10:51:12;;;;;;;8.63;3.40;;;21.90;99.90;;;;;;5078988;28;20028;-59
2021/08/10 10:53:39;;;;;;;4.22;2.95;;;22.00;99.90;;;;;;5084424;28;20047;-57
2021/08/10 10:56:25;;;;;;;6.35;4.03;;;22.00;99.90;;;;;;5087510;28;20036;-59
2021/08/10 10:58:51;;;;;;;6.63;3.25;;;22.20;99.90;;;;;;5083250;28;20020;-54
2021/08/10 11:01:21;;;;;;;6.30;3.20;;;22.30;99.90;;;;;;5083320;28;20034;-61
2021/08/10 11:04:08;;;;;;;7.95;3.88;;;22.20;99.90;;;;;;5086780;28;20487;-58
2021/08/10 11:06:34;;;;;;;8.82;3.22;;;22.00;99.90;;;;;;5078223;28;20028;-64
2021/08/10 11:09:02;;;;;;;7.30;3.00;;;22.40;99.90;;;;;;5083576;28;20045;-65
2021/08/10 11:11:51;;;;;;;6.65;3.63;;;22.90;99.90;;;;;;5084029;28;20028;-65
2021/08/10 11:14:35;;;;;;;6.05;3.55;;;22.90;99.90;;;;;;5087534;28;20499;-63
2021/08/10 11:17:37;;;;;;;5.97;2.83;;;22.40;99.90;;;;;;5082976;28;20047;-64
2021/08/10 11:20:26;;;;;;;5.97;3.63;;;22.30;99.90;;;;;;5082486;28;20032;-64
2021/08/10 11:23:24;;;;;;;5.35;3.17;;;22.00;99.90;;;;;;5086701;28;20056;-66
2021/08/10 11:26:05;;;;;;;8.27;3.67;;;22.00;99.90;;;;;;5086876;28;20070;-66
2021/08/10 11:28:49;;;;;;;7.65;3.08;;;21.90;99.90;;;;;;5081752;28;20027;-65
2021/08/10 11:31:54;;;;;;;8.03;3.60;;;22.00;99.90;;;;;;5085989;28;20055;-65
2021/08/10 11:34:34;;;;;;;6.88;3.88;;;21.80;99.90;;;;;;5035678;28;20028;-64
2021/08/10 11:37:19;;;;;;;16.60;4.10;;;21.90;99.90;;;;;;5037081;28;20507;-66
2021/08/10 11:40:12;;;;;;;7.13;3.33;;;21.90;99.90;;;;;;5060065;28;20040;-64
2021/08/10 11:42:39;;;;;;;13.00;4.22;;;22.30;99.90;;;;;;5095303;28;20480;-65
2021/08/10 11:45:06;;;;;;;4.13;3.20;;;22.40;99.90;;;;;;5082476;28;20449;-65
2021/08/10 11:47:31;;;;;;;6.35;3.45;;;22.50;99.90;;;;;;5082497;28;20043;-66
2021/08/10 11:49:57;;;;;;;10.07;3.92;;;22.80;99.90;;;;;;5085276;28;20050;-65
2021/08/10 11:52:23;;;;;;;6.57;3.40;;;22.90;99.90;;;;;;5082376;28;20078;-65
2021/08/10 11:54:58;;;;;;;5.90;3.03;;;23.30;99.90;;;;;;5084873;28;20032;-62
2021/08/10 11:57:24;;;;;;;7.28;2.78;;;23.00;99.90;;;;;;5085465;28;20089;-64
2021/08/10 12:00:13;;;;;;;5.50;3.25;;;23.10;99.90;;;;;;5083436;28;20107;-65
2021/08/10 12:02:46;;;;;;;5.30;3.17;;;22.80;99.90;;;;;;5084555;28;20072;-62
2021/08/10 12:05:12;;;;;;;5.68;3.80;;;22.50;99.90;;;;;;5085343;28;20103;-64
2021/08/10 12:07:54;;;;;;;11.75;3.45;;;22.50;99.90;;;;;;5088415;28;20024;-65
2021/08/10 12:10:31;;;;;;;9.45;3.67;;;22.80;99.90;;;;;;5085490;28;20107;-64
2021/08/10 12:13:16;;;;;;;5.28;3.00;;;23.30;99.90;;;;;;5084826;28;20095;-63
2021/08/10 12:15:44;;;;;;;;;;;23.60;99.90;;;;;;5088290;28;20384;-65
2021/08/10 12:18:12;;;;;;;9.52;3.38;;;23.80;99.90;;;;;;5087031;28;19908;-65
2021/08/10 12:20:38;;;;;;;12.75;3.65;;;24.20;99.90;;;;;;5081717;28;20024;-64
2021/08/10 12:23:06;;;;;;;6.57;3.53;;;24.40;99.90;;;;;;5081165;28;20580;-65
2021/08/10 12:25:32;;;;;;;8.68;3.17;;;24.30;99.90;;;;;;5081607;28;20025;-63
2021/08/10 12:28:06;;;;;;;5.35;3.15;;;23.90;99.90;;;;;;5079562;28;20108;-63
2021/08/10 12:30:33;;;;;;;5.97;3.15;;;23.70;99.90;;;;;;5086510;28;20397;-64
2021/08/10 12:33:15;;;;;;;9.43;3.45;;;24.20;99.90;;;;;;5084468;28;20024;-64
2021/08/10 12:36:04;;;;;;;9.55;3.33;;;24.60;99.90;;;;;;5077475;28;20107;-63
2021/08/10 12:38:30;;;;;;;7.50;3.30;;;24.50;99.90;;;;;;5085902;28;20845;-65
2021/08/10 12:40:57;;;;;;;5.35;3.08;;;24.30;99.90;;;;;;5087375;28;20047;-65
2021/08/10 12:43:26;;;;;;;6.28;3.22;;;24.00;99.90;;;;;;5086926;28;20485;-64
2021/08/10 12:45:52;;;;;;;10.00;3.40;;;23.80;99.90;;;;;;5084662;28;20127;-60
2021/08/10 12:48:33;;;;;;;5.32;2.88;;;23.70;99.90;;;;;;5086674;28;20428;-64
2021/08/10 12:51:01;;;;;;;5.82;3.60;;;23.70;99.90;;;;;;5083781;28;20067;-62